Skip Navigation LinksHome page > Weather > Current weather Skip Navigation Links

Current Weather

Newark Intl, Newark, N.J.

For information only: do not use for flight planning or navigation.
Latest weather
Observation time Saturday, October 19, 2019 5:51 AM EDT
Local time Saturday, October 19, 2019 6:21 AM EDT
Flight conditions Visual Meteorological Conditions
Winds
Wind direction West-Northwest (300°)
Wind speed 5 mph
Visibility 10 mi.
Sky condition
Ceiling unlimited
Sky clear
Temperature 43°F
Dewpoint 36°F
Altimeter 30.05 in.Hg
Derived measurements
Relative humidity 76%
Wind chill 40°F
Density altitude -1096 ft.
Sea-level pressure 30.05 in.Hg
Remarks
System requires maintenance.
Automated weather observing station with precipitation discriminator.
METAR KEWR 190951Z 30004KT 10SM CLR 06/02 A3005 RMK AO2 SLP175 T00610022 $

Settings

Location code

InnerDrive.Weather 4.0.6770.0 Release CLR 4.0.30319.42000
Copyright ©2018 Inner Drive Technology. All rights reserved. Portions Copyright ©1986-2018 David Braverman.

Find weather

Site navigation


Skip Navigation Links

Place info

Page info

PayPal - The safer, easier way to pay online!

Return home.

Copyright ©2019 Inner Drive Technology. Purveyors of fine, hand-crafted computer software. Page printed 2019-10-19T10:21:24 UTC.